Time;durP1;ratioP1;P1;durP2;ratioP2;P2;SDS_P1;SDS_P2;PMS_P1;PMS_P2;Temp;Humidity;BMP_temperature;BMP_pressure;BME280_temperature;BME280_humidity;BME280_pressure;Samples;Min_cycle;Max_cycle;Signal;HPM_P1;HPM_P2
2023/06/11 00:00:35;;;;;;;1.50;1.40;;;;;;;;;;4989397;28;58398;-65
2023/06/11 00:03:01;;;;;;;1.25;1.15;;;;;;;;;;4988299;28;58431;-65
2023/06/11 00:05:27;;;;;;;1.30;1.15;;;;;;;;;;4988561;28;58344;-65
2023/06/11 00:07:55;;;;;;;2.40;1.42;;;;;;;;;;4988574;28;59683;-65
2023/06/11 00:10:20;;;;;;;1.20;1.17;;;;;;;;;;4987170;28;58923;-66
2023/06/11 00:12:45;;;;;;;2.17;1.53;;;;;;;;;;4987908;28;58369;-65
2023/06/11 00:15:11;;;;;;;1.55;1.30;;;;;;;;;;4986527;28;58412;-65
2023/06/11 00:17:36;;;;;;;1.30;1.20;;;;;;;;;;4987130;28;58500;-64
2023/06/11 00:20:03;;;;;;;1.00;1.00;;;;;;;;;;4988224;28;58603;-64
2023/06/11 00:22:31;;;;;;;2.30;1.20;;;;;;;;;;4988745;28;58646;-65
2023/06/11 00:24:56;;;;;;;1.40;1.08;;;;;;;;;;4987414;28;58535;-64
2023/06/11 00:27:22;;;;;;;1.50;1.40;;;;;;;;;;4988422;28;59150;-64
2023/06/11 00:29:47;;;;;;;1.08;1.00;;;;;;;;;;4987924;28;58443;-65
2023/06/11 00:32:12;;;;;;;1.27;1.17;;;;;;;;;;4988582;28;58387;-64
2023/06/11 00:34:37;;;;;;;1.00;1.00;;;;;;;;;;4988078;28;58329;-64
2023/06/11 00:37:02;;;;;;;1.55;1.30;;;;;;;;;;4988027;28;58847;-65
2023/06/11 00:39:27;;;;;;;2.23;1.23;;;;;;;;;;4988317;28;58386;-64
2023/06/11 00:41:53;;;;;;;1.47;1.20;;;;;;;;;;4989164;28;58441;-65
2023/06/11 00:44:21;;;;;;;1.50;1.15;;;;;;;;;;4987672;28;59047;-64
2023/06/11 00:46:47;;;;;;;2.15;1.58;;;;;;;;;;4987243;28;59150;-61
2023/06/11 00:49:12;;;;;;;1.60;1.50;;;;;;;;;;4986755;28;58911;-64
2023/06/11 00:51:40;;;;;;;1.45;1.33;;;;;;;;;;4988259;28;58549;-64
2023/06/11 00:54:05;;;;;;;1.50;1.10;;;;;;;;;;4987995;28;59004;-64
2023/06/11 00:56:33;;;;;;;1.83;1.58;;;;;;;;;;4988026;28;58783;-64
2023/06/11 00:58:59;;;;;;;1.00;1.00;;;;;;;;;;4986960;28;58766;-66
2023/06/11 01:01:29;;;;;;;1.23;1.13;;;;;;;;;;4987861;28;59015;-64
2023/06/11 01:03:56;;;;;;;1.10;1.10;;;;;;;;;;4987115;28;58759;-64
2023/06/11 01:06:22;;;;;;;1.60;1.35;;;;;;;;;;4984591;28;58571;-59
2023/06/11 01:08:53;;;;;;;1.30;1.20;;;;;;;;;;4984382;28;58454;-65
2023/06/11 01:11:21;;;;;;;1.50;1.33;;;;;;;;;;4987956;28;58371;-64
2023/06/11 01:13:46;;;;;;;2.22;1.55;;;;;;;;;;4986564;28;58499;-64
2023/06/11 01:16:14;;;;;;;1.65;1.55;;;;;;;;;;4985555;28;58395;-64
2023/06/11 01:18:48;;;;;;;1.35;1.25;;;;;;;;;;4986681;28;58432;-64
2023/06/11 01:21:17;;;;;;;1.02;0.90;;;;;;;;;;4987408;28;58162;-62
2023/06/11 01:23:48;;;;;;;1.48;1.38;;;;;;;;;;4986577;28;59297;-64
2023/06/11 01:26:30;;;;;;;1.08;1.08;;;;;;;;;;4989087;28;58743;-64
2023/06/11 01:28:56;;;;;;;1.50;1.40;;;;;;;;;;4986121;28;58702;-64
2023/06/11 01:31:21;;;;;;;1.27;1.17;;;;;;;;;;4987219;28;58540;-62
2023/06/11 01:33:47;;;;;;;2.35;1.15;;;;;;;;;;4987664;28;58981;-64
2023/06/11 01:36:14;;;;;;;1.52;1.42;;;;;;;;;;4986489;28;58401;-64
2023/06/11 01:38:42;;;;;;;1.30;1.20;;;;;;;;;;4986488;28;58439;-65
2023/06/11 01:41:07;;;;;;;;;;;;;;;;;;4987668;28;58306;-65
2023/06/11 01:43:32;;;;;;;1.45;1.35;;;;;;;;;;4986018;28;58917;-64
2023/06/11 01:45:58;;;;;;;1.92;1.35;;;;;;;;;;4988210;28;58749;-64
2023/06/11 01:48:23;;;;;;;1.30;1.13;;;;;;;;;;4987264;28;60138;-63
2023/06/11 01:50:49;;;;;;;1.67;1.55;;;;;;;;;;4985180;28;58747;-65
2023/06/11 01:53:16;;;;;;;1.50;1.40;;;;;;;;;;4987179;28;58862;-64
2023/06/11 01:55:42;;;;;;;1.52;1.30;;;;;;;;;;4985183;28;58832;-65
2023/06/11 01:58:07;;;;;;;1.48;1.38;;;;;;;;;;4985833;28;58508;-64
2023/06/11 02:00:32;;;;;;;1.33;1.23;;;;;;;;;;4985334;28;58931;-65
2023/06/11 02:03:01;;;;;;;1.52;1.27;;;;;;;;;;4985995;28;59013;-64
2023/06/11 02:05:26;;;;;;;1.58;1.45;;;;;;;;;;4987193;28;58350;-65
2023/06/11 02:07:51;;;;;;;1.50;1.40;;;;;;;;;;4986667;28;58555;-64
2023/06/11 02:10:17;;;;;;;1.50;1.40;;;;;;;;;;4985890;28;58521;-64
2023/06/11 02:12:42;;;;;;;1.10;1.00;;;;;;;;;;4986637;28;58950;-64
2023/06/11 02:15:07;;;;;;;1.65;1.55;;;;;;;;;;4983693;28;58544;-65
2023/06/11 02:17:32;;;;;;;1.37;1.27;;;;;;;;;;4987764;28;58371;-64
2023/06/11 02:19:57;;;;;;;1.10;1.10;;;;;;;;;;4985069;28;59226;-62
2023/06/11 02:22:23;;;;;;;1.40;1.30;;;;;;;;;;4985032;28;58706;-64
2023/06/11 02:24:48;;;;;;;1.37;1.27;;;;;;;;;;4987243;28;58626;-64
2023/06/11 02:27:13;;;;;;;1.40;1.30;;;;;;;;;;4985995;28;58834;-64
2023/06/11 02:29:38;;;;;;;1.53;1.43;;;;;;;;;;4985311;28;59150;-64
2023/06/11 02:32:04;;;;;;;1.80;1.27;;;;;;;;;;4987005;28;58502;-64
2023/06/11 02:34:29;;;;;;;1.15;1.15;;;;;;;;;;4984637;28;58691;-64
2023/06/11 02:36:54;;;;;;;1.38;1.27;;;;;;;;;;4986695;28;58436;-64
2023/06/11 02:39:19;;;;;;;1.80;1.70;;;;;;;;;;4987372;28;58257;-62
2023/06/11 02:41:44;;;;;;;1.23;1.10;;;;;;;;;;4984497;28;60326;-63
2023/06/11 02:44:10;;;;;;;1.27;1.10;;;;;;;;;;4986385;28;58465;-64
2023/06/11 02:46:35;;;;;;;1.00;1.00;;;;;;;;;;4984870;28;58901;-64
2023/06/11 02:49:00;;;;;;;1.42;1.33;;;;;;;;;;4986081;28;58447;-64
2023/06/11 02:51:25;;;;;;;1.83;1.58;;;;;;;;;;4985719;28;58401;-63
2023/06/11 02:53:50;;;;;;;1.07;1.07;;;;;;;;;;4986429;28;58524;-65
2023/06/11 02:56:16;;;;;;;1.17;1.17;;;;;;;;;;4986567;28;58369;-63
2023/06/11 02:58:41;;;;;;;1.47;1.37;;;;;;;;;;4985857;28;58306;-64
2023/06/11 03:01:06;;;;;;;1.40;1.30;;;;;;;;;;4983828;28;58716;-64
2023/06/11 03:03:31;;;;;;;1.52;1.42;;;;;;;;;;4985458;28;59272;-64
2023/06/11 03:05:56;;;;;;;1.10;1.10;;;;;;;;;;4986164;28;58410;-64
2023/06/11 03:08:21;;;;;;;1.73;1.13;;;;;;;;;;4984243;28;58423;-64
2023/06/11 03:10:46;;;;;;;1.13;1.07;;;;;;;;;;4984491;28;58489;-64
2023/06/11 03:13:12;;;;;;;1.58;1.48;;;;;;;;;;4985956;28;58834;-64
2023/06/11 03:15:37;;;;;;;1.30;1.20;;;;;;;;;;4985753;28;58363;-61
2023/06/11 03:18:03;;;;;;;1.58;1.48;;;;;;;;;;4985237;28;58264;-64
2023/06/11 03:20:28;;;;;;;1.15;1.15;;;;;;;;;;4984563;28;58528;-60
2023/06/11 03:22:53;;;;;;;1.27;1.20;;;;;;;;;;4986505;28;58318;-64
2023/06/11 03:25:18;;;;;;;1.17;1.10;;;;;;;;;;4985673;28;58357;-65
2023/06/11 03:27:43;;;;;;;1.80;1.70;;;;;;;;;;4983964;28;58308;-65
2023/06/11 03:30:10;;;;;;;1.73;1.63;;;;;;;;;;4987530;28;58263;-64
2023/06/11 03:32:35;;;;;;;1.75;1.08;;;;;;;;;;4984598;28;59262;-62
2023/06/11 03:35:00;;;;;;;1.27;1.17;;;;;;;;;;4983704;28;58872;-64
2023/06/11 03:37:25;;;;;;;1.10;1.10;;;;;;;;;;4985544;28;58672;-65
2023/06/11 03:39:50;;;;;;;1.40;1.30;;;;;;;;;;4983567;28;58434;-64
2023/06/11 03:42:15;;;;;;;1.35;1.10;;;;;;;;;;4985387;28;58173;-63
2023/06/11 03:44:41;;;;;;;1.63;1.52;;;;;;;;;;4985580;28;58902;-65
2023/06/11 03:47:06;;;;;;;1.33;1.23;;;;;;;;;;4984610;28;58610;-61
2023/06/11 03:49:31;;;;;;;1.20;1.10;;;;;;;;;;4985983;28;58293;-65
2023/06/11 03:51:56;;;;;;;1.10;1.10;;;;;;;;;;4984832;28;58504;-64
2023/06/11 03:54:22;;;;;;;0.90;0.90;;;;;;;;;;4985305;28;58385;-64
2023/06/11 03:56:47;;;;;;;1.25;1.15;;;;;;;;;;4985478;28;58337;-63
2023/06/11 03:59:12;;;;;;;1.30;1.20;;;;;;;;;;4985742;28;58704;-64
2023/06/11 04:01:37;;;;;;;1.20;1.10;;;;;;;;;;4984345;28;58851;-65
2023/06/11 04:04:02;;;;;;;1.30;1.20;;;;;;;;;;4983139;28;58470;-65
2023/06/11 04:06:28;;;;;;;1.07;1.07;;;;;;;;;;4983781;28;58578;-64
2023/06/11 04:08:53;;;;;;;1.63;1.53;;;;;;;;;;4985172;28;58529;-65
2023/06/11 04:11:18;;;;;;;1.42;1.33;;;;;;;;;;4985402;28;58487;-65
2023/06/11 04:13:49;;;;;;;1.33;1.23;;;;;;;;;;4984282;28;58398;-64
2023/06/11 04:16:14;;;;;;;1.75;1.55;;;;;;;;;;4984858;28;58643;-64
2023/06/11 04:18:39;;;;;;;1.40;1.30;;;;;;;;;;4983942;28;59700;-63
2023/06/11 04:21:05;;;;;;;1.13;1.13;;;;;;;;;;4984489;28;58794;-63
2023/06/11 04:23:30;;;;;;;1.27;1.20;;;;;;;;;;4983923;28;59836;-64
2023/06/11 04:25:56;;;;;;;1.27;1.23;;;;;;;;;;4983265;28;59245;-63
2023/06/11 04:28:23;;;;;;;1.13;0.98;;;;;;;;;;4984036;28;58530;-65
2023/06/11 04:30:48;;;;;;;1.13;1.10;;;;;;;;;;4984576;28;58888;-64
2023/06/11 04:33:15;;;;;;;1.23;1.13;;;;;;;;;;4982894;28;59570;-61
2023/06/11 04:35:40;;;;;;;1.27;1.17;;;;;;;;;;4984548;28;58291;-64
2023/06/11 04:38:05;;;;;;;1.40;1.30;;;;;;;;;;4984788;28;58226;-64
2023/06/11 04:40:33;;;;;;;0.97;0.97;;;;;;;;;;4983922;28;58570;-64
2023/06/11 04:42:58;;;;;;;1.20;1.20;;;;;;;;;;4987286;28;58769;-64
2023/06/11 04:45:26;;;;;;;1.27;1.17;;;;;;;;;;4987552;28;58808;-64
2023/06/11 04:47:51;;;;;;;1.20;1.10;;;;;;;;;;4987279;28;58790;-63
2023/06/11 04:50:20;;;;;;;1.60;1.50;;;;;;;;;;4987488;28;58811;-64
2023/06/11 04:52:46;;;;;;;1.30;1.20;;;;;;;;;;4987194;28;59035;-64
2023/06/11 04:55:12;;;;;;;1.20;1.10;;;;;;;;;;4986666;28;58507;-64
2023/06/11 04:57:37;;;;;;;0.95;0.93;;;;;;;;;;4988274;28;58489;-64
2023/06/11 05:00:06;;;;;;;1.03;0.93;;;;;;;;;;4987296;28;58678;-64
2023/06/11 05:02:32;;;;;;;0.80;0.80;;;;;;;;;;4987036;28;58403;-64
2023/06/11 05:04:57;;;;;;;1.37;1.27;;;;;;;;;;4987847;28;58683;-64
2023/06/11 05:07:23;;;;;;;1.20;1.07;;;;;;;;;;4987619;28;58850;-64
2023/06/11 05:09:48;;;;;;;1.70;1.60;;;;;;;;;;4987685;28;58845;-63
2023/06/11 05:12:13;;;;;;;1.50;1.40;;;;;;;;;;4986588;28;58766;-63
2023/06/11 05:14:38;;;;;;;2.40;1.60;;;;;;;;;;4987782;28;58680;-64
2023/06/11 05:17:04;;;;;;;1.42;1.10;;;;;;;;;;4987582;28;59493;-64
2023/06/11 05:19:29;;;;;;;1.27;1.17;;;;;;;;;;4986765;28;58453;-64
2023/06/11 05:21:54;;;;;;;1.50;1.40;;;;;;;;;;4987686;28;58633;-64
2023/06/11 05:24:20;;;;;;;1.42;1.35;;;;;;;;;;4987018;28;59316;-64
2023/06/11 05:26:45;;;;;;;1.23;1.00;;;;;;;;;;4986774;28;58788;-65
2023/06/11 05:29:10;;;;;;;1.20;1.10;;;;;;;;;;4987444;28;58539;-65
2023/06/11 05:31:35;;;;;;;1.13;1.07;;;;;;;;;;4985067;28;58600;-65
2023/06/11 05:34:01;;;;;;;1.40;1.30;;;;;;;;;;4987528;28;58516;-60
2023/06/11 05:36:27;;;;;;;1.98;1.08;;;;;;;;;;4986786;28;59819;-64
2023/06/11 05:38:52;;;;;;;1.73;1.25;;;;;;;;;;4984705;28;59835;-64
2023/06/11 05:41:18;;;;;;;1.10;1.00;;;;;;;;;;4987428;28;58362;-65
2023/06/11 05:43:43;;;;;;;1.02;1.00;;;;;;;;;;4986849;28;58860;-64
2023/06/11 05:46:08;;;;;;;1.45;1.20;;;;;;;;;;4985129;28;58790;-65
2023/06/11 05:48:33;;;;;;;1.08;0.98;;;;;;;;;;4984852;28;58835;-64
2023/06/11 05:50:58;;;;;;;1.40;1.30;;;;;;;;;;4983930;28;58800;-64
2023/06/11 05:53:23;;;;;;;1.40;1.30;;;;;;;;;;4983491;28;58568;-63
2023/06/11 05:55:48;;;;;;;1.33;1.23;;;;;;;;;;4986693;28;58409;-65
2023/06/11 05:58:13;;;;;;;1.00;1.00;;;;;;;;;;4986637;28;57828;-63
2023/06/11 06:00:39;;;;;;;0.80;0.80;;;;;;;;;;4981266;28;58351;-65
2023/06/11 06:03:04;;;;;;;1.10;1.00;;;;;;;;;;4982690;28;58443;-64
2023/06/11 06:05:29;;;;;;;0.90;0.90;;;;;;;;;;4982893;28;58534;-62
2023/06/11 06:07:54;;;;;;;0.70;0.70;;;;;;;;;;4983164;28;58740;-61
2023/06/11 06:10:19;;;;;;;0.63;0.63;;;;;;;;;;4984330;28;58563;-64
2023/06/11 06:12:45;;;;;;;0.97;0.90;;;;;;;;;;4982428;28;58937;-64
2023/06/11 06:15:10;;;;;;;1.40;1.30;;;;;;;;;;4983263;28;58492;-65
2023/06/11 06:17:35;;;;;;;1.13;1.07;;;;;;;;;;4983744;28;58648;-64
2023/06/11 06:20:00;;;;;;;1.67;1.10;;;;;;;;;;4987412;28;58422;-64
2023/06/11 06:22:26;;;;;;;1.10;1.00;;;;;;;;;;4985940;28;58413;-64
2023/06/11 06:24:51;;;;;;;1.20;1.00;;;;;;;;;;4986276;28;58853;-64
2023/06/11 06:27:16;;;;;;;1.02;1.02;;;;;;;;;;4985851;28;58390;-64
2023/06/11 06:29:41;;;;;;;1.10;1.00;;;;;;;;;;4982907;28;58385;-65
2023/06/11 06:32:06;;;;;;;0.90;0.90;;;;;;;;;;4984859;28;58685;-64
2023/06/11 06:34:31;;;;;;;1.07;0.90;;;;;;;;;;4984761;28;59897;-63
2023/06/11 06:36:57;;;;;;;3.03;1.40;;;;;;;;;;4986612;28;58407;-65
2023/06/11 06:39:22;;;;;;;3.63;2.00;;;;;;;;;;4984431;28;58352;-65
2023/06/11 06:41:47;;;;;;;1.47;1.37;;;;;;;;;;4982534;28;57891;-60
2023/06/11 06:44:12;;;;;;;4.20;2.40;;;;;;;;;;4979489;28;58901;-64
2023/06/11 06:46:38;;;;;;;2.85;1.90;;;;;;;;;;4981364;28;58386;-64
2023/06/11 06:49:03;;;;;;;2.33;1.65;;;;;;;;;;4985193;28;58397;-65
2023/06/11 06:51:29;;;;;;;3.53;1.90;;;;;;;;;;4985475;28;58269;-64
2023/06/11 06:53:54;;;;;;;4.43;2.28;;;;;;;;;;4983622;28;58720;-64
2023/06/11 06:56:21;;;;;;;1.17;1.07;;;;;;;;;;4983508;28;59080;-65
2023/06/11 06:58:46;;;;;;;2.05;1.20;;;;;;;;;;4986699;28;58520;-64
2023/06/11 07:01:12;;;;;;;1.50;1.40;;;;;;;;;;4985706;28;58817;-64
2023/06/11 07:03:37;;;;;;;2.63;1.70;;;;;;;;;;4980812;28;58613;-63
2023/06/11 07:06:02;;;;;;;1.70;1.33;;;;;;;;;;4982673;28;58481;-64
2023/06/11 07:08:28;;;;;;;3.25;1.30;;;;;;;;;;4981406;28;59686;-62
2023/06/11 07:10:54;;;;;;;2.85;1.35;;;;;;;;;;4985670;28;58506;-64
2023/06/11 07:13:20;;;;;;;1.33;1.23;;;;;;;;;;4982137;28;58995;-62
2023/06/11 07:15:45;;;;;;;1.90;1.58;;;;;;;;;;4982372;28;58671;-64
2023/06/11 07:18:10;;;;;;;2.97;2.17;;;;;;;;;;4981419;28;59896;-64
2023/06/11 07:20:35;;;;;;;2.73;1.73;;;;;;;;;;4983905;28;58589;-64
2023/06/11 07:23:00;;;;;;;2.67;1.70;;;;;;;;;;4982911;28;58302;-63
2023/06/11 07:25:28;;;;;;;4.75;2.17;;;;;;;;;;4984812;28;58382;-63
2023/06/11 07:27:54;;;;;;;2.75;2.13;;;;;;;;;;4985733;28;58968;-64
2023/06/11 07:30:19;;;;;;;1.30;1.20;;;;;;;;;;4986356;28;58582;-64
2023/06/11 07:32:45;;;;;;;2.40;2.03;;;;;;;;;;4985637;28;58463;-65
2023/06/11 07:35:10;;;;;;;5.87;1.50;;;;;;;;;;4985084;28;58981;-65
2023/06/11 07:37:35;;;;;;;5.40;2.00;;;;;;;;;;4982602;28;58767;-60
2023/06/11 07:40:00;;;;;;;3.03;1.60;;;;;;;;;;4985550;28;58531;-62
2023/06/11 07:42:25;;;;;;;2.17;2.00;;;;;;;;;;4986057;28;59075;-65
2023/06/11 07:44:50;;;;;;;2.80;1.60;;;;;;;;;;4983626;28;58941;-64
2023/06/11 07:47:16;;;;;;;2.40;1.90;;;;;;;;;;4983792;28;58381;-66
2023/06/11 07:49:41;;;;;;;2.40;2.20;;;;;;;;;;4983882;28;58774;-62
2023/06/11 07:52:06;;;;;;;16.40;2.23;;;;;;;;;;4984286;28;58465;-64
2023/06/11 07:54:32;;;;;;;4.30;1.55;;;;;;;;;;4983692;28;58715;-62
2023/06/11 07:56:57;;;;;;;3.55;2.20;;;;;;;;;;4983456;28;58328;-64
2023/06/11 07:59:22;;;;;;;5.03;3.38;;;;;;;;;;4983871;28;58283;-68
2023/06/11 08:01:47;;;;;;;6.60;1.65;;;;;;;;;;4982509;28;58794;-66
2023/06/11 08:04:13;;;;;;;6.20;2.10;;;;;;;;;;4984167;28;58837;-64
2023/06/11 08:06:38;;;;;;;3.42;1.98;;;;;;;;;;4985848;28;58729;-66
2023/06/11 08:09:03;;;;;;;3.53;1.60;;;;;;;;;;4981285;28;58537;-63
2023/06/11 08:11:28;;;;;;;1.73;1.63;;;;;;;;;;4983074;28;58410;-65
2023/06/11 08:13:53;;;;;;;6.80;1.75;;;;;;;;;;4985261;28;58367;-61
2023/06/11 08:16:19;;;;;;;3.00;1.70;;;;;;;;;;4983763;28;58382;-59
2023/06/11 08:18:44;;;;;;;3.55;2.10;;;;;;;;;;4987038;28;59911;-59
2023/06/11 08:21:10;;;;;;;4.10;1.52;;;;;;;;;;4991587;28;58425;-59
2023/06/11 08:23:35;;;;;;;1.67;1.58;;;;;;;;;;4991596;28;58433;-59
2023/06/11 08:26:01;;;;;;;3.15;1.60;;;;;;;;;;4992417;28;58742;-59
2023/06/11 08:28:29;;;;;;;2.00;1.50;;;;;;;;;;4990709;28;58376;-59
2023/06/11 08:30:54;;;;;;;2.40;1.52;;;;;;;;;;4991709;28;58935;-59
2023/06/11 08:33:19;;;;;;;3.50;1.70;;;;;;;;;;4992049;28;58954;-60
2023/06/11 08:35:44;;;;;;;2.15;1.95;;;;;;;;;;4992094;28;58386;-59
2023/06/11 08:38:11;;;;;;;2.83;1.77;;;;;;;;;;4991452;28;59119;-59
2023/06/11 08:40:40;;;;;;;1.95;1.80;;;;;;;;;;4991281;28;58609;-59
2023/06/11 08:43:05;;;;;;;4.53;1.30;;;;;;;;;;4992246;28;58465;-59
2023/06/11 08:45:30;;;;;;;10.87;2.80;;;;;;;;;;4992068;28;59113;-65
2023/06/11 08:47:56;;;;;;;3.28;2.20;;;;;;;;;;4989903;28;58501;-65
2023/06/11 08:50:23;;;;;;;4.60;2.03;;;;;;;;;;4991803;28;58383;-67
2023/06/11 08:52:54;;;;;;;2.05;1.85;;;;;;;;;;4991556;28;58439;-67
2023/06/11 08:55:19;;;;;;;3.88;2.17;;;;;;;;;;4989827;28;58700;-65
2023/06/11 08:57:45;;;;;;;7.17;2.13;;;;;;;;;;4993003;28;58430;-65
2023/06/11 09:00:12;;;;;;;3.90;1.95;;;;;;;;;;4990675;28;59730;-66
2023/06/11 09:02:37;;;;;;;2.92;1.92;;;;;;;;;;4990361;28;58426;-67
2023/06/11 09:05:03;;;;;;;3.42;1.90;;;;;;;;;;4989754;28;58910;-66
2023/06/11 09:07:29;;;;;;;2.13;1.48;;;;;;;;;;4990601;28;58767;-62
2023/06/11 09:10:04;;;;;;;4.93;1.87;;;;;;;;;;4986482;28;58370;-60
2023/06/11 09:12:30;;;;;;;3.67;1.70;;;;;;;;;;4985755;28;58465;-63
2023/06/11 09:14:55;;;;;;;2.40;2.20;;;;;;;;;;4988185;28;59585;-63
2023/06/11 09:17:20;;;;;;;3.77;2.10;;;;;;;;;;4988767;28;58432;-62
2023/06/11 09:19:45;;;;;;;8.43;2.13;;;;;;;;;;4985031;28;58652;-64
2023/06/11 09:22:11;;;;;;;5.82;2.20;;;;;;;;;;4987388;28;58369;-62
2023/06/11 09:24:36;;;;;;;2.15;1.85;;;;;;;;;;4987008;28;58489;-63
2023/06/11 09:27:01;;;;;;;12.00;2.13;;;;;;;;;;4985895;28;58810;-64
2023/06/11 09:29:27;;;;;;;5.43;1.88;;;;;;;;;;4985259;28;58621;-62
2023/06/11 09:32:05;;;;;;;2.22;1.77;;;;;;;;;;4986992;28;58721;-60
2023/06/11 09:34:30;;;;;;;3.00;2.15;;;;;;;;;;4984398;28;58806;-63
2023/06/11 09:36:56;;;;;;;2.40;2.20;;;;;;;;;;4987104;28;58405;-61
2023/06/11 09:39:21;;;;;;;2.15;1.98;;;;;;;;;;4985525;28;59013;-61
2023/06/11 09:41:48;;;;;;;3.20;2.13;;;;;;;;;;4986706;28;59281;-61
2023/06/11 09:44:13;;;;;;;2.88;1.73;;;;;;;;;;4983682;28;60019;-62
2023/06/11 09:46:38;;;;;;;8.52;3.00;;;;;;;;;;4986143;28;58419;-61
2023/06/11 09:49:05;;;;;;;2.20;2.00;;;;;;;;;;4989470;28;58767;-65
2023/06/11 09:51:31;;;;;;;4.13;2.80;;;;;;;;;;4990249;28;58928;-64
2023/06/11 09:53:57;;;;;;;2.92;2.13;;;;;;;;;;4989436;28;58953;-64
2023/06/11 09:56:23;;;;;;;3.20;1.90;;;;;;;;;;4985897;28;58564;-60
2023/06/11 09:58:48;;;;;;;2.63;2.15;;;;;;;;;;4988054;28;58856;-61
2023/06/11 10:01:15;;;;;;;3.50;2.05;;;;;;;;;;4986047;28;58594;-60
2023/06/11 10:03:40;;;;;;;3.65;2.25;;;;;;;;;;4987352;28;58358;-61
2023/06/11 10:06:07;;;;;;;7.70;1.80;;;;;;;;;;4986180;28;58361;-61
2023/06/11 10:08:34;;;;;;;4.07;2.60;;;;;;;;;;4985387;28;58410;-62
2023/06/11 10:11:01;;;;;;;3.33;2.15;;;;;;;;;;4985826;28;59218;-62
2023/06/11 10:13:30;;;;;;;3.25;2.50;;;;;;;;;;4986645;28;58601;-66
2023/06/11 10:15:59;;;;;;;3.80;2.13;;;;;;;;;;4989048;28;58711;-62
2023/06/11 10:18:25;;;;;;;4.78;1.90;;;;;;;;;;4990531;28;58909;-66
2023/06/11 10:20:51;;;;;;;1.92;1.73;;;;;;;;;;4986119;28;58389;-61
2023/06/11 10:23:17;;;;;;;1.75;1.65;;;;;;;;;;4988409;28;58870;-65
2023/06/11 10:25:50;;;;;;;3.60;1.58;;;;;;;;;;4986693;28;58358;-65
2023/06/11 10:28:16;;;;;;;7.47;2.17;;;;;;;;;;5000143;28;59003;-65
2023/06/11 10:30:50;;;;;;;2.22;1.98;;;;;;;;;;4985104;28;58712;-66
2023/06/11 10:33:16;;;;;;;3.28;1.90;;;;;;;;;;4985804;28;58577;-69
2023/06/11 10:35:46;;;;;;;1.88;1.70;;;;;;;;;;4985120;28;58453;-66
2023/06/11 10:38:13;;;;;;;2.05;1.85;;;;;;;;;;4985558;28;58612;-66
2023/06/11 10:40:38;;;;;;;1.75;1.48;;;;;;;;;;4984941;28;58421;-63
2023/06/11 10:43:17;;;;;;;3.60;1.88;;;;;;;;;;4986183;28;58255;-66
2023/06/11 10:45:42;;;;;;;3.97;2.05;;;;;;;;;;4985887;28;58933;-68
2023/06/11 10:48:07;;;;;;;2.10;1.90;;;;;;;;;;4985502;28;58564;-67
2023/06/11 10:50:33;;;;;;;2.27;2.10;;;;;;;;;;4987783;28;59232;-63
2023/06/11 10:53:04;;;;;;;5.45;1.55;;;;;;;;;;4986168;28;58684;-61
2023/06/11 10:55:30;;;;;;;3.08;1.83;;;;;;;;;;4984334;28;58591;-62
2023/06/11 10:57:56;;;;;;;3.40;2.50;;;;;;;;;;4985466;28;59465;-61
2023/06/11 11:00:22;;;;;;;4.35;2.30;;;;;;;;;;4984997;28;58294;-62
2023/06/11 11:02:47;;;;;;;2.67;2.20;;;;;;;;;;4987050;28;58027;-60
2023/06/11 11:05:12;;;;;;;4.20;2.28;;;;;;;;;;4984176;28;58818;-58
2023/06/11 11:07:38;;;;;;;3.03;2.40;;;;;;;;;;4987270;28;58478;-59
2023/06/11 11:10:07;;;;;;;3.80;2.25;;;;;;;;;;4985570;28;59085;-61
2023/06/11 11:12:37;;;;;;;3.80;2.08;;;;;;;;;;4985671;28;58355;-60
2023/06/11 11:15:03;;;;;;;7.60;2.90;;;;;;;;;;4987701;28;58465;-62
2023/06/11 11:19:40;;;;;;;2.72;2.40;;;;;;;;;;5043680;28;58435;-62
2023/06/11 11:22:05;;;;;;;5.60;2.43;;;;;;;;;;5044683;28;58819;-63
2023/06/11 11:24:33;;;;;;;3.33;2.30;;;;;;;;;;5042387;28;58146;-66
2023/06/11 11:26:58;;;;;;;3.17;2.88;;;;;;;;;;5041393;28;58295;-66
2023/06/11 11:29:23;;;;;;;2.38;1.98;;;;;;;;;;5042035;28;58243;-60
2023/06/11 11:31:49;;;;;;;2.78;2.45;;;;;;;;;;5042031;28;57472;-64
2023/06/11 11:34:14;;;;;;;4.65;2.35;;;;;;;;;;5039887;28;57536;-62
2023/06/11 11:36:43;;;;;;;3.25;2.15;;;;;;;;;;5041661;28;57740;-65
2023/06/11 11:39:11;;;;;;;2.42;2.22;;;;;;;;;;5044457;28;57199;-63
2023/06/11 11:41:43;;;;;;;2.75;2.42;;;;;;;;;;5041037;28;58488;-62
2023/06/11 11:44:08;;;;;;;2.70;2.47;;;;;;;;;;5041996;28;58054;-59
2023/06/11 11:46:36;;;;;;;3.17;2.37;;;;;;;;;;5041962;28;57692;-63
2023/06/11 11:49:02;;;;;;;2.58;2.38;;;;;;;;;;5043381;28;57511;-68
2023/06/11 11:51:29;;;;;;;2.67;2.28;;;;;;;;;;5041511;28;57352;-67
2023/06/11 11:53:54;;;;;;;3.17;2.65;;;;;;;;;;5040291;28;58066;-62
2023/06/11 11:56:19;;;;;;;3.00;2.63;;;;;;;;;;5038673;28;58476;-63
2023/06/11 11:58:45;;;;;;;3.30;2.47;;;;;;;;;;5039754;28;57511;-62
2023/06/11 12:01:21;;;;;;;3.45;2.55;;;;;;;;;;5038467;28;57828;-67
2023/06/11 12:03:57;;;;;;;3.13;1.95;;;;;;;;;;5040886;28;58393;-65
2023/06/11 12:06:22;;;;;;;3.03;2.40;;;;;;;;;;5040385;28;57120;-60
2023/06/11 12:08:48;;;;;;;2.75;2.45;;;;;;;;;;5039455;28;58351;-66
2023/06/11 12:11:13;;;;;;;2.30;1.90;;;;;;;;;;5039343;28;57928;-63
2023/06/11 12:13:38;;;;;;;4.28;2.58;;;;;;;;;;5039575;28;57855;-63
2023/06/11 12:16:03;;;;;;;4.00;3.03;;;;;;;;;;5036009;28;58409;-63
2023/06/11 12:18:28;;;;;;;5.57;2.50;;;;;;;;;;5038543;28;57786;-62
2023/06/11 12:20:54;;;;;;;5.07;2.35;;;;;;;;;;5040103;28;57960;-60
2023/06/11 12:23:19;;;;;;;3.78;2.10;;;;;;;;;;5038199;28;58596;-59
2023/06/11 12:25:45;;;;;;;3.40;2.27;;;;;;;;;;5035119;28;58311;-61
2023/06/11 12:28:10;;;;;;;3.45;2.38;;;;;;;;;;5038838;28;59595;-61
2023/06/11 12:30:35;;;;;;;3.85;2.42;;;;;;;;;;5027383;28;57924;-58
2023/06/11 12:33:00;;;;;;;2.40;2.20;;;;;;;;;;5025174;28;59202;-58
2023/06/11 12:35:27;;;;;;;3.23;2.40;;;;;;;;;;5021023;28;57824;-60
2023/06/11 12:37:53;;;;;;;2.13;1.92;;;;;;;;;;5020373;28;57983;-58
2023/06/11 12:40:18;;;;;;;4.28;2.45;;;;;;;;;;5028171;28;57460;-60
2023/06/11 12:42:43;;;;;;;3.27;2.47;;;;;;;;;;5025717;28;58012;-67
2023/06/11 12:45:08;;;;;;;6.80;3.07;;;;;;;;;;5028780;28;57995;-73
2023/06/11 12:47:34;;;;;;;4.38;3.08;;;;;;;;;;5023967;28;58855;-63
2023/06/11 12:50:00;;;;;;;6.63;3.03;;;;;;;;;;5026496;28;57664;-65
2023/06/11 12:52:25;;;;;;;3.00;2.72;;;;;;;;;;5026233;28;57864;-67
2023/06/11 12:54:50;;;;;;;5.32;2.30;;;;;;;;;;5025193;28;58285;-69
2023/06/11 12:57:15;;;;;;;3.53;2.43;;;;;;;;;;5027417;28;58320;-65
2023/06/11 12:59:41;;;;;;;2.40;2.20;;;;;;;;;;5024697;28;57968;-66
2023/06/11 13:02:07;;;;;;;5.65;2.30;;;;;;;;;;5025016;28;59507;-67
2023/06/11 13:04:32;;;;;;;2.85;2.65;;;;;;;;;;5024433;28;58633;-66
2023/06/11 13:06:58;;;;;;;3.27;1.93;;;;;;;;;;5027372;28;57693;-61
2023/06/11 13:09:24;;;;;;;3.28;2.35;;;;;;;;;;5026708;28;58048;-66
2023/06/11 13:11:50;;;;;;;3.78;3.08;;;;;;;;;;5026361;28;57809;-65
2023/06/11 13:14:15;;;;;;;2.43;2.07;;;;;;;;;;5024170;28;58168;-69
2023/06/11 13:16:40;;;;;;;2.53;2.20;;;;;;;;;;5026480;28;57361;-66
2023/06/11 13:19:05;;;;;;;5.87;3.57;;;;;;;;;;5023285;28;58380;-65
2023/06/11 13:21:30;;;;;;;3.47;2.20;;;;;;;;;;5025247;28;57759;-64
2023/06/11 13:23:56;;;;;;;5.68;2.42;;;;;;;;;;5027115;28;57306;-69
2023/06/11 13:26:22;;;;;;;2.92;2.58;;;;;;;;;;5026544;28;57462;-60
2023/06/11 13:28:48;;;;;;;3.80;2.20;;;;;;;;;;5025888;28;58134;-60
2023/06/11 13:31:13;;;;;;;2.93;2.40;;;;;;;;;;5024727;28;58210;-68
2023/06/11 13:33:38;;;;;;;4.10;2.40;;;;;;;;;;5027155;28;58284;-65
2023/06/11 13:36:03;;;;;;;3.85;2.97;;;;;;;;;;5030265;28;57724;-66
2023/06/11 13:38:29;;;;;;;2.03;1.83;;;;;;;;;;5024309;28;58225;-67
2023/06/11 13:40:54;;;;;;;2.78;1.73;;;;;;;;;;5023333;28;57723;-66
2023/06/11 13:43:19;;;;;;;6.97;2.22;;;;;;;;;;5024874;28;57973;-63
2023/06/11 13:45:44;;;;;;;2.43;2.23;;;;;;;;;;5025428;28;57228;-63
2023/06/11 13:48:13;;;;;;;3.40;2.47;;;;;;;;;;5025349;28;57801;-61
2023/06/11 13:50:38;;;;;;;;;;;;;;;;;;5025232;28;57194;-63
2023/06/11 13:53:03;;;;;;;3.35;1.90;;;;;;;;;;5023747;28;58541;-62
2023/06/11 13:55:28;;;;;;;5.35;2.05;;;;;;;;;;5026008;28;58149;-68
2023/06/11 13:57:53;;;;;;;3.07;2.40;;;;;;;;;;5027198;28;58467;-64
2023/06/11 14:00:18;;;;;;;3.70;3.25;;;;;;;;;;5023544;28;57845;-69
2023/06/11 14:02:44;;;;;;;4.57;2.30;;;;;;;;;;5026665;28;58676;-62
2023/06/11 14:05:09;;;;;;;6.90;2.63;;;;;;;;;;5025539;28;57794;-64
2023/06/11 14:07:35;;;;;;;2.83;1.77;;;;;;;;;;5024870;28;57427;-61
2023/06/11 14:10:04;;;;;;;2.85;2.58;;;;;;;;;;5027766;28;57861;-61
2023/06/11 14:12:29;;;;;;;2.20;2.10;;;;;;;;;;5026679;28;57941;-64
2023/06/11 14:14:57;;;;;;;5.83;2.47;;;;;;;;;;5026369;28;57944;-68
2023/06/11 14:17:22;;;;;;;3.22;2.30;;;;;;;;;;5023699;28;57110;-67
2023/06/11 14:19:47;;;;;;;5.03;2.10;;;;;;;;;;5022608;28;58148;-67
2023/06/11 14:22:12;;;;;;;4.18;2.35;;;;;;;;;;5024642;28;57837;-68
2023/06/11 14:24:37;;;;;;;2.63;2.00;;;;;;;;;;5024393;28;57867;-69
2023/06/11 14:27:02;;;;;;;3.50;2.53;;;;;;;;;;5024110;28;58361;-60
2023/06/11 14:29:28;;;;;;;3.40;2.20;;;;;;;;;;5022615;28;57385;-60
2023/06/11 14:32:00;;;;;;;6.97;2.33;;;;;;;;;;5023824;28;57092;-57
2023/06/11 14:34:25;;;;;;;2.42;2.10;;;;;;;;;;5025073;28;57531;-61
2023/06/11 14:36:50;;;;;;;2.57;2.37;;;;;;;;;;5021316;28;57835;-60